sensor_id;sensor_type;location;lat;lon;timestamp;temperature;humidity
75994;DHT22;64680;53.800;9.988;2023-07-02T00:01:10;14.10;92.60
75994;DHT22;64680;53.800;9.988;2023-07-02T00:03:37;14.10;93.20
75994;DHT22;64680;53.800;9.988;2023-07-02T00:06:04;14.10;95.30
75994;DHT22;64680;53.800;9.988;2023-07-02T00:08:30;14.00;94.40
75994;DHT22;64680;53.800;9.988;2023-07-02T00:10:56;14.00;95.40
75994;DHT22;64680;53.800;9.988;2023-07-02T00:13:21;14.00;95.50
75994;DHT22;64680;53.800;9.988;2023-07-02T00:15:47;14.00;95.30
75994;DHT22;64680;53.800;9.988;2023-07-02T00:18:12;14.00;95.20
75994;DHT22;64680;53.800;9.988;2023-07-02T00:20:42;13.90;95.50
75994;DHT22;64680;53.800;9.988;2023-07-02T00:23:08;13.90;96.20
75994;DHT22;64680;53.800;9.988;2023-07-02T00:25:38;13.90;96.20
75994;DHT22;64680;53.800;9.988;2023-07-02T00:28:03;13.90;96.20
75994;DHT22;64680;53.800;9.988;2023-07-02T00:30:29;13.90;96.50
75994;DHT22;64680;53.800;9.988;2023-07-02T00:32:55;13.90;96.40
75994;DHT22;64680;53.800;9.988;2023-07-02T00:35:21;14.00;95.50
75994;DHT22;64680;53.800;9.988;2023-07-02T00:37:47;14.00;94.70
75994;DHT22;64680;53.800;9.988;2023-07-02T00:40:13;14.10;94.90
75994;DHT22;64680;53.800;9.988;2023-07-02T00:42:38;14.10;94.10
75994;DHT22;64680;53.800;9.988;2023-07-02T00:45:04;14.10;94.40
75994;DHT22;64680;53.800;9.988;2023-07-02T00:47:34;14.10;94.10
75994;DHT22;64680;53.800;9.988;2023-07-02T00:50:00;14.10;94.40
75994;DHT22;64680;53.800;9.988;2023-07-02T00:52:27;14.10;94.10
75994;DHT22;64680;53.800;9.988;2023-07-02T00:54:52;14.10;93.80
75994;DHT22;64680;53.800;9.988;2023-07-02T00:57:18;14.10;92.70
75994;DHT22;64680;53.800;9.988;2023-07-02T00:59:44;14.10;93.30
75994;DHT22;64680;53.800;9.988;2023-07-02T01:02:09;14.20;91.80
75994;DHT22;64680;53.800;9.988;2023-07-02T01:04:37;14.20;92.70
75994;DHT22;64680;53.800;9.988;2023-07-02T01:07:02;14.20;92.60
75994;DHT22;64680;53.800;9.988;2023-07-02T01:09:34;14.20;93.10
75994;DHT22;64680;53.800;9.988;2023-07-02T01:12:02;14.20;92.00
75994;DHT22;64680;53.800;9.988;2023-07-02T01:14:33;14.20;91.60
75994;DHT22;64680;53.800;9.988;2023-07-02T01:17:00;14.20;92.60
75994;DHT22;64680;53.800;9.988;2023-07-02T01:19:49;14.20;92.20
75994;DHT22;64680;53.800;9.988;2023-07-02T01:22:23;14.20;91.90
75994;DHT22;64680;53.800;9.988;2023-07-02T01:24:49;14.20;91.80
75994;DHT22;64680;53.800;9.988;2023-07-02T01:27:16;14.10;92.80
75994;DHT22;64680;53.800;9.988;2023-07-02T01:29:42;14.10;92.20
75994;DHT22;64680;53.800;9.988;2023-07-02T01:32:10;14.10;91.60
75994;DHT22;64680;53.800;9.988;2023-07-02T01:34:36;14.10;93.70
75994;DHT22;64680;53.800;9.988;2023-07-02T01:37:03;14.10;93.20
75994;DHT22;64680;53.800;9.988;2023-07-02T01:39:29;14.20;92.70
75994;DHT22;64680;53.800;9.988;2023-07-02T01:42:00;14.20;91.70
75994;DHT22;64680;53.800;9.988;2023-07-02T01:44:32;14.20;91.40
75994;DHT22;64680;53.800;9.988;2023-07-02T01:46:57;14.20;92.00
75994;DHT22;64680;53.800;9.988;2023-07-02T01:49:24;14.10;93.30
75994;DHT22;64680;53.800;9.988;2023-07-02T01:51:53;14.20;92.50
75994;DHT22;64680;53.800;9.988;2023-07-02T01:54:22;14.20;91.80
75994;DHT22;64680;53.800;9.988;2023-07-02T01:56:48;14.20;92.50
75994;DHT22;64680;53.800;9.988;2023-07-02T01:59:14;14.20;93.10
75994;DHT22;64680;53.800;9.988;2023-07-02T02:01:40;14.20;92.40
75994;DHT22;64680;53.800;9.988;2023-07-02T02:04:06;14.20;92.00
75994;DHT22;64680;53.800;9.988;2023-07-02T02:06:33;14.10;92.00
75994;DHT22;64680;53.800;9.988;2023-07-02T02:08:58;14.10;91.90
75994;DHT22;64680;53.800;9.988;2023-07-02T02:11:24;14.10;91.50
75994;DHT22;64680;53.800;9.988;2023-07-02T02:13:50;14.20;90.70
75994;DHT22;64680;53.800;9.988;2023-07-02T02:16:15;14.10;91.30
75994;DHT22;64680;53.800;9.988;2023-07-02T02:18:41;14.20;91.40
75994;DHT22;64680;53.800;9.988;2023-07-02T02:21:07;14.20;91.10
75994;DHT22;64680;53.800;9.988;2023-07-02T02:23:32;14.10;90.00
75994;DHT22;64680;53.800;9.988;2023-07-02T02:25:58;14.10;90.10
75994;DHT22;64680;53.800;9.988;2023-07-02T02:28:23;14.10;91.60
75994;DHT22;64680;53.800;9.988;2023-07-02T02:30:49;14.00;92.80
75994;DHT22;64680;53.800;9.988;2023-07-02T02:33:14;14.00;93.20
75994;DHT22;64680;53.800;9.988;2023-07-02T02:35:40;14.00;94.20
75994;DHT22;64680;53.800;9.988;2023-07-02T02:38:06;14.00;93.60
75994;DHT22;64680;53.800;9.988;2023-07-02T02:40:31;14.00;92.40
75994;DHT22;64680;53.800;9.988;2023-07-02T02:42:57;14.00;92.70
75994;DHT22;64680;53.800;9.988;2023-07-02T02:45:22;14.00;92.20
75994;DHT22;64680;53.800;9.988;2023-07-02T02:47:48;14.00;93.00
75994;DHT22;64680;53.800;9.988;2023-07-02T02:50:14;14.00;92.20
75994;DHT22;64680;53.800;9.988;2023-07-02T02:52:40;14.00;92.00
75994;DHT22;64680;53.800;9.988;2023-07-02T02:55:07;13.90;92.20
75994;DHT22;64680;53.800;9.988;2023-07-02T02:57:33;13.90;93.30
75994;DHT22;64680;53.800;9.988;2023-07-02T02:59:59;13.80;92.50
75994;DHT22;64680;53.800;9.988;2023-07-02T03:02:24;13.90;92.70
75994;DHT22;64680;53.800;9.988;2023-07-02T03:04:50;13.90;92.20
75994;DHT22;64680;53.800;9.988;2023-07-02T03:07:16;13.80;92.60
75994;DHT22;64680;53.800;9.988;2023-07-02T03:09:42;13.80;93.50
75994;DHT22;64680;53.800;9.988;2023-07-02T03:12:08;13.80;92.70
75994;DHT22;64680;53.800;9.988;2023-07-02T03:14:33;13.70;93.30
75994;DHT22;64680;53.800;9.988;2023-07-02T03:16:59;13.80;93.60
75994;DHT22;64680;53.800;9.988;2023-07-02T03:19:25;13.80;93.00
75994;DHT22;64680;53.800;9.988;2023-07-02T03:21:51;13.80;93.40
75994;DHT22;64680;53.800;9.988;2023-07-02T03:24:17;13.70;93.40
75994;DHT22;64680;53.800;9.988;2023-07-02T03:26:43;13.70;93.00
75994;DHT22;64680;53.800;9.988;2023-07-02T03:29:10;13.70;93.50
75994;DHT22;64680;53.800;9.988;2023-07-02T03:31:36;13.80;92.30
75994;DHT22;64680;53.800;9.988;2023-07-02T03:34:09;13.80;90.50
75994;DHT22;64680;53.800;9.988;2023-07-02T03:36:36;13.80;90.60
75994;DHT22;64680;53.800;9.988;2023-07-02T03:39:02;13.80;90.00
75994;DHT22;64680;53.800;9.988;2023-07-02T03:41:28;13.90;88.90
75994;DHT22;64680;53.800;9.988;2023-07-02T03:43:54;13.80;90.30
75994;DHT22;64680;53.800;9.988;2023-07-02T03:46:19;13.80;90.20
75994;DHT22;64680;53.800;9.988;2023-07-02T03:48:45;13.80;90.00
75994;DHT22;64680;53.800;9.988;2023-07-02T03:51:11;13.80;89.70
75994;DHT22;64680;53.800;9.988;2023-07-02T03:53:40;13.80;89.20
75994;DHT22;64680;53.800;9.988;2023-07-02T03:56:06;13.80;89.80
75994;DHT22;64680;53.800;9.988;2023-07-02T03:58:32;13.80;90.30
75994;DHT22;64680;53.800;9.988;2023-07-02T04:00:57;13.80;90.60
75994;DHT22;64680;53.800;9.988;2023-07-02T04:03:23;13.80;88.90
75994;DHT22;64680;53.800;9.988;2023-07-02T04:05:48;13.80;88.50
75994;DHT22;64680;53.800;9.988;2023-07-02T04:08:15;13.90;87.30
75994;DHT22;64680;53.800;9.988;2023-07-02T04:10:41;13.90;87.20
75994;DHT22;64680;53.800;9.988;2023-07-02T04:13:07;14.00;86.40
75994;DHT22;64680;53.800;9.988;2023-07-02T04:15:33;13.90;86.60
75994;DHT22;64680;53.800;9.988;2023-07-02T04:17:58;13.90;87.10
75994;DHT22;64680;53.800;9.988;2023-07-02T04:20:24;13.90;85.80
75994;DHT22;64680;53.800;9.988;2023-07-02T04:22:50;13.90;86.00
75994;DHT22;64680;53.800;9.988;2023-07-02T04:25:16;14.00;85.00
75994;DHT22;64680;53.800;9.988;2023-07-02T04:27:45;14.00;85.60
75994;DHT22;64680;53.800;9.988;2023-07-02T04:30:11;14.00;84.90
75994;DHT22;64680;53.800;9.988;2023-07-02T04:32:38;14.00;83.40
75994;DHT22;64680;53.800;9.988;2023-07-02T04:35:09;14.10;81.20
75994;DHT22;64680;53.800;9.988;2023-07-02T04:37:36;14.20;79.50
75994;DHT22;64680;53.800;9.988;2023-07-02T04:40:02;14.30;76.00
75994;DHT22;64680;53.800;9.988;2023-07-02T04:42:38;15.00;70.60
75994;DHT22;64680;53.800;9.988;2023-07-02T04:45:07;15.70;56.30
75994;DHT22;64680;53.800;9.988;2023-07-02T04:47:34;16.10;49.40
75994;DHT22;64680;53.800;9.988;2023-07-02T04:49:59;16.70;42.30
75994;DHT22;64680;53.800;9.988;2023-07-02T04:52:25;17.00;38.50
75994;DHT22;64680;53.800;9.988;2023-07-02T04:54:51;17.20;33.00
75994;DHT22;64680;53.800;9.988;2023-07-02T04:57:17;17.50;29.80
75994;DHT22;64680;53.800;9.988;2023-07-02T04:59:42;17.70;25.00
75994;DHT22;64680;53.800;9.988;2023-07-02T05:02:08;17.80;20.00
75994;DHT22;64680;53.800;9.988;2023-07-02T05:04:35;17.90;23.20
75994;DHT22;64680;53.800;9.988;2023-07-02T05:07:03;18.40;16.20
75994;DHT22;64680;53.800;9.988;2023-07-02T05:09:30;18.50;11.20
75994;DHT22;64680;53.800;9.988;2023-07-02T05:11:56;17.90;15.30
75994;DHT22;64680;53.800;9.988;2023-07-02T05:14:21;17.40;19.30
75994;DHT22;64680;53.800;9.988;2023-07-02T05:16:48;16.70;26.40
75994;DHT22;64680;53.800;9.988;2023-07-02T05:19:14;16.20;34.30
75994;DHT22;64680;53.800;9.988;2023-07-02T05:21:39;15.70;38.30
75994;DHT22;64680;53.800;9.988;2023-07-02T05:24:05;15.40;42.90
75994;DHT22;64680;53.800;9.988;2023-07-02T05:26:31;15.20;48.70
75994;DHT22;64680;53.800;9.988;2023-07-02T05:28:56;15.10;49.00
75994;DHT22;64680;53.800;9.988;2023-07-02T05:31:22;15.00;49.60
75994;DHT22;64680;53.800;9.988;2023-07-02T05:33:47;15.10;51.10
75994;DHT22;64680;53.800;9.988;2023-07-02T05:36:13;15.20;47.70
75994;DHT22;64680;53.800;9.988;2023-07-02T05:38:39;15.10;49.00
75994;DHT22;64680;53.800;9.988;2023-07-02T05:41:04;15.00;46.90
75994;DHT22;64680;53.800;9.988;2023-07-02T05:43:30;14.90;49.50
75994;DHT22;64680;53.800;9.988;2023-07-02T05:45:58;14.90;50.90
75994;DHT22;64680;53.800;9.988;2023-07-02T05:48:26;15.50;43.30
75994;DHT22;64680;53.800;9.988;2023-07-02T05:50:51;16.30;37.50
75994;DHT22;64680;53.800;9.988;2023-07-02T05:53:17;16.90;26.90
75994;DHT22;64680;53.800;9.988;2023-07-02T05:55:43;17.20;21.70
75994;DHT22;64680;53.800;9.988;2023-07-02T05:58:08;17.40;18.10
75994;DHT22;64680;53.800;9.988;2023-07-02T06:00:34;17.50;17.00
75994;DHT22;64680;53.800;9.988;2023-07-02T06:03:00;17.40;17.90
75994;DHT22;64680;53.800;9.988;2023-07-02T06:05:26;17.50;15.30
75994;DHT22;64680;53.800;9.988;2023-07-02T06:07:51;17.60;17.60
75994;DHT22;64680;53.800;9.988;2023-07-02T06:10:17;17.80;13.20
75994;DHT22;64680;53.800;9.988;2023-07-02T06:12:43;17.80;11.80
75994;DHT22;64680;53.800;9.988;2023-07-02T06:15:10;17.80;13.90
75994;DHT22;64680;53.800;9.988;2023-07-02T06:17:35;17.80;13.30
75994;DHT22;64680;53.800;9.988;2023-07-02T06:20:05;17.80;8.50
75994;DHT22;64680;53.800;9.988;2023-07-02T06:22:31;18.00;11.70
75994;DHT22;64680;53.800;9.988;2023-07-02T06:24:57;18.30;9.40
75994;DHT22;64680;53.800;9.988;2023-07-02T06:27:22;18.50;10.00
75994;DHT22;64680;53.800;9.988;2023-07-02T06:29:48;18.50;1.40
75994;DHT22;64680;53.800;9.988;2023-07-02T06:32:15;18.50;5.10
75994;DHT22;64680;53.800;9.988;2023-07-02T06:34:41;18.40;4.40
75994;DHT22;64680;53.800;9.988;2023-07-02T06:37:06;18.30;2.30
75994;DHT22;64680;53.800;9.988;2023-07-02T06:39:32;18.10;6.00
75994;DHT22;64680;53.800;9.988;2023-07-02T06:41:58;18.10;2.90
75994;DHT22;64680;53.800;9.988;2023-07-02T06:44:23;17.90;5.50
75994;DHT22;64680;53.800;9.988;2023-07-02T06:46:49;17.90;9.60
75994;DHT22;64680;53.800;9.988;2023-07-02T06:49:17;18.00;9.00
75994;DHT22;64680;53.800;9.988;2023-07-02T06:51:43;17.80;7.40
75994;DHT22;64680;53.800;9.988;2023-07-02T06:54:08;17.90;12.60
75994;DHT22;64680;53.800;9.988;2023-07-02T06:56:46;18.00;9.30
75994;DHT22;64680;53.800;9.988;2023-07-02T06:59:12;17.70;6.30
75994;DHT22;64680;53.800;9.988;2023-07-02T07:02:04;17.30;9.30
75994;DHT22;64680;53.800;9.988;2023-07-02T07:04:41;17.00;10.60
75994;DHT22;64680;53.800;9.988;2023-07-02T07:07:17;16.80;18.20
75994;DHT22;64680;53.800;9.988;2023-07-02T07:09:47;16.70;18.90
75994;DHT22;64680;53.800;9.988;2023-07-02T07:12:13;16.60;20.20
75994;DHT22;64680;53.800;9.988;2023-07-02T07:14:41;16.50;15.90
75994;DHT22;64680;53.800;9.988;2023-07-02T07:17:10;16.50;18.80
75994;DHT22;64680;53.800;9.988;2023-07-02T07:19:36;16.40;16.60
75994;DHT22;64680;53.800;9.988;2023-07-02T07:22:02;16.20;7.50
75994;DHT22;64680;53.800;9.988;2023-07-02T07:24:28;15.90;5.70
75994;DHT22;64680;53.800;9.988;2023-07-02T07:26:54;15.80;3.00
75994;DHT22;64680;53.800;9.988;2023-07-02T07:29:19;15.80;1.00
75994;DHT22;64680;53.800;9.988;2023-07-02T07:31:45;15.70;1.00
75994;DHT22;64680;53.800;9.988;2023-07-02T07:34:11;15.80;1.00
75994;DHT22;64680;53.800;9.988;2023-07-02T07:36:37;15.80;1.00
75994;DHT22;64680;53.800;9.988;2023-07-02T07:39:03;15.60;1.00
75994;DHT22;64680;53.800;9.988;2023-07-02T07:41:29;15.60;1.00
75994;DHT22;64680;53.800;9.988;2023-07-02T07:43:55;15.60;1.00
75994;DHT22;64680;53.800;9.988;2023-07-02T07:46:21;15.60;6.80
75994;DHT22;64680;53.800;9.988;2023-07-02T07:48:47;15.90;10.50
75994;DHT22;64680;53.800;9.988;2023-07-02T07:51:12;16.10;13.90
75994;DHT22;64680;53.800;9.988;2023-07-02T07:53:38;16.20;15.30
75994;DHT22;64680;53.800;9.988;2023-07-02T07:56:05;16.40;19.50
75994;DHT22;64680;53.800;9.988;2023-07-02T07:58:30;17.00;17.40
75994;DHT22;64680;53.800;9.988;2023-07-02T08:00:57;17.40;11.90
75994;DHT22;64680;53.800;9.988;2023-07-02T08:03:23;17.60;8.90
75994;DHT22;64680;53.800;9.988;2023-07-02T08:05:48;17.40;7.70
75994;DHT22;64680;53.800;9.988;2023-07-02T08:08:14;17.60;4.70
75994;DHT22;64680;53.800;9.988;2023-07-02T08:10:40;17.70;6.40
75994;DHT22;64680;53.800;9.988;2023-07-02T08:13:06;18.10;1.00
75994;DHT22;64680;53.800;9.988;2023-07-02T08:15:33;18.60;2.30
75994;DHT22;64680;53.800;9.988;2023-07-02T08:17:59;18.90;1.00
75994;DHT22;64680;53.800;9.988;2023-07-02T08:20:25;18.90;1.00
75994;DHT22;64680;53.800;9.988;2023-07-02T08:22:51;18.60;1.00
75994;DHT22;64680;53.800;9.988;2023-07-02T08:25:19;18.30;1.00
75994;DHT22;64680;53.800;9.988;2023-07-02T08:27:46;17.90;1.00
75994;DHT22;64680;53.800;9.988;2023-07-02T08:30:12;17.80;1.00
75994;DHT22;64680;53.800;9.988;2023-07-02T08:32:38;17.70;1.70
75994;DHT22;64680;53.800;9.988;2023-07-02T08:35:03;17.80;5.00
75994;DHT22;64680;53.800;9.988;2023-07-02T08:37:29;17.90;1.00
75994;DHT22;64680;53.800;9.988;2023-07-02T08:39:57;18.10;1.70
75994;DHT22;64680;53.800;9.988;2023-07-02T08:42:22;18.70;1.00
75994;DHT22;64680;53.800;9.988;2023-07-02T08:44:53;18.90;1.00
75994;DHT22;64680;53.800;9.988;2023-07-02T08:47:19;19.00;1.00
75994;DHT22;64680;53.800;9.988;2023-07-02T08:49:45;18.80;1.00
75994;DHT22;64680;53.800;9.988;2023-07-02T08:52:10;19.00;1.00
75994;DHT22;64680;53.800;9.988;2023-07-02T08:54:36;19.00;1.00
75994;DHT22;64680;53.800;9.988;2023-07-02T08:57:02;19.10;1.00
75994;DHT22;64680;53.800;9.988;2023-07-02T08:59:31;19.40;1.00
75994;DHT22;64680;53.800;9.988;2023-07-02T09:01:56;19.80;1.00
75994;DHT22;64680;53.800;9.988;2023-07-02T09:04:23;20.00;1.00
75994;DHT22;64680;53.800;9.988;2023-07-02T09:07:04;20.10;1.00
75994;DHT22;64680;53.800;9.988;2023-07-02T09:09:30;20.30;1.00
75994;DHT22;64680;53.800;9.988;2023-07-02T09:11:56;20.20;1.00
75994;DHT22;64680;53.800;9.988;2023-07-02T09:14:31;19.80;1.00
75994;DHT22;64680;53.800;9.988;2023-07-02T09:17:07;19.60;1.00
75994;DHT22;64680;53.800;9.988;2023-07-02T09:19:34;19.70;1.00
75994;DHT22;64680;53.800;9.988;2023-07-02T09:22:01;19.50;1.00
75994;DHT22;64680;53.800;9.988;2023-07-02T09:24:31;19.10;1.00
75994;DHT22;64680;53.800;9.988;2023-07-02T09:26:59;18.60;1.00
75994;DHT22;64680;53.800;9.988;2023-07-02T09:29:29;18.10;1.00
75994;DHT22;64680;53.800;9.988;2023-07-02T09:31:57;18.10;1.00
75994;DHT22;64680;53.800;9.988;2023-07-02T09:34:36;18.00;1.00
75994;DHT22;64680;53.800;9.988;2023-07-02T09:37:03;18.00;1.00
75994;DHT22;64680;53.800;9.988;2023-07-02T09:39:31;18.30;1.00
75994;DHT22;64680;53.800;9.988;2023-07-02T09:41:59;18.70;1.00
75994;DHT22;64680;53.800;9.988;2023-07-02T09:44:30;18.80;1.00
75994;DHT22;64680;53.800;9.988;2023-07-02T09:47:07;19.10;1.00
75994;DHT22;64680;53.800;9.988;2023-07-02T09:49:51;19.30;1.00
75994;DHT22;64680;53.800;9.988;2023-07-02T09:52:18;19.40;1.00
75994;DHT22;64680;53.800;9.988;2023-07-02T09:54:44;19.70;1.00
75994;DHT22;64680;53.800;9.988;2023-07-02T09:57:10;19.90;1.00
75994;DHT22;64680;53.800;9.988;2023-07-02T09:59:37;20.10;1.00
75994;DHT22;64680;53.800;9.988;2023-07-02T10:02:03;20.30;1.00
75994;DHT22;64680;53.800;9.988;2023-07-02T10:04:45;20.20;1.00
75994;DHT22;64680;53.800;9.988;2023-07-02T10:07:12;19.70;1.00
75994;DHT22;64680;53.800;9.988;2023-07-02T10:09:46;19.40;1.00
75994;DHT22;64680;53.800;9.988;2023-07-02T10:12:23;19.00;1.00
75994;DHT22;64680;53.800;9.988;2023-07-02T10:14:50;18.70;1.00
75994;DHT22;64680;53.800;9.988;2023-07-02T10:17:29;18.70;1.00
75994;DHT22;64680;53.800;9.988;2023-07-02T10:20:00;19.10;1.00
75994;DHT22;64680;53.800;9.988;2023-07-02T10:22:26;19.70;1.00
75994;DHT22;64680;53.800;9.988;2023-07-02T10:24:55;20.00;1.00
75994;DHT22;64680;53.800;9.988;2023-07-02T10:27:33;20.00;1.00
75994;DHT22;64680;53.800;9.988;2023-07-02T10:30:07;20.10;1.00
75994;DHT22;64680;53.800;9.988;2023-07-02T10:32:34;20.20;1.00
75994;DHT22;64680;53.800;9.988;2023-07-02T10:35:01;19.80;1.00
75994;DHT22;64680;53.800;9.988;2023-07-02T10:37:35;19.80;1.00
75994;DHT22;64680;53.800;9.988;2023-07-02T10:40:11;20.20;1.00
75994;DHT22;64680;53.800;9.988;2023-07-02T10:42:51;20.00;1.00
75994;DHT22;64680;53.800;9.988;2023-07-02T10:45:18;19.50;1.00
75994;DHT22;64680;53.800;9.988;2023-07-02T10:47:44;19.20;1.00
75994;DHT22;64680;53.800;9.988;2023-07-02T10:50:17;19.00;1.00
75994;DHT22;64680;53.800;9.988;2023-07-02T10:52:43;18.90;1.00
75994;DHT22;64680;53.800;9.988;2023-07-02T10:55:09;18.80;1.00
75994;DHT22;64680;53.800;9.988;2023-07-02T10:57:35;18.60;1.00
75994;DHT22;64680;53.800;9.988;2023-07-02T11:00:07;18.50;1.00
75994;DHT22;64680;53.800;9.988;2023-07-02T11:02:34;18.90;1.00
75994;DHT22;64680;53.800;9.988;2023-07-02T11:05:00;19.00;1.00
75994;DHT22;64680;53.800;9.988;2023-07-02T11:07:26;19.10;1.00
75994;DHT22;64680;53.800;9.988;2023-07-02T11:09:51;19.00;1.00
75994;DHT22;64680;53.800;9.988;2023-07-02T11:12:17;19.00;1.00
75994;DHT22;64680;53.800;9.988;2023-07-02T11:14:43;19.40;1.00
75994;DHT22;64680;53.800;9.988;2023-07-02T11:17:08;20.00;1.00
75994;DHT22;64680;53.800;9.988;2023-07-02T11:19:35;20.30;1.00
75994;DHT22;64680;53.800;9.988;2023-07-02T11:22:01;20.10;1.00
75994;DHT22;64680;53.800;9.988;2023-07-02T11:24:33;19.80;1.00
75994;DHT22;64680;53.800;9.988;2023-07-02T11:27:03;19.30;1.00
75994;DHT22;64680;53.800;9.988;2023-07-02T11:29:34;18.80;1.00
75994;DHT22;64680;53.800;9.988;2023-07-02T11:32:08;18.50;1.00
75994;DHT22;64680;53.800;9.988;2023-07-02T11:34:35;18.70;1.00
75994;DHT22;64680;53.800;9.988;2023-07-02T11:37:01;19.10;1.00
75994;DHT22;64680;53.800;9.988;2023-07-02T11:39:27;19.30;1.00
75994;DHT22;64680;53.800;9.988;2023-07-02T11:41:53;19.60;1.00
75994;DHT22;64680;53.800;9.988;2023-07-02T11:44:19;19.70;1.00
75994;DHT22;64680;53.800;9.988;2023-07-02T11:46:44;19.50;1.00
75994;DHT22;64680;53.800;9.988;2023-07-02T11:49:15;19.00;1.00
75994;DHT22;64680;53.800;9.988;2023-07-02T11:51:41;18.60;1.00
75994;DHT22;64680;53.800;9.988;2023-07-02T11:54:07;18.70;1.00
75994;DHT22;64680;53.800;9.988;2023-07-02T11:56:33;18.80;1.00
75994;DHT22;64680;53.800;9.988;2023-07-02T11:58:59;19.00;1.00
75994;DHT22;64680;53.800;9.988;2023-07-02T12:01:25;19.20;1.00
75994;DHT22;64680;53.800;9.988;2023-07-02T12:03:51;19.50;1.00
75994;DHT22;64680;53.800;9.988;2023-07-02T12:06:17;19.70;1.00
75994;DHT22;64680;53.800;9.988;2023-07-02T12:08:43;19.80;1.00
75994;DHT22;64680;53.800;9.988;2023-07-02T12:11:08;19.90;1.00
75994;DHT22;64680;53.800;9.988;2023-07-02T12:13:34;20.00;1.00
75994;DHT22;64680;53.800;9.988;2023-07-02T12:16:00;20.00;1.00
75994;DHT22;64680;53.800;9.988;2023-07-02T12:18:26;20.10;1.00
75994;DHT22;64680;53.800;9.988;2023-07-02T12:20:52;20.40;1.00
75994;DHT22;64680;53.800;9.988;2023-07-02T12:23:17;20.60;1.00
75994;DHT22;64680;53.800;9.988;2023-07-02T12:25:43;20.50;1.00
75994;DHT22;64680;53.800;9.988;2023-07-02T12:28:09;20.40;1.00
75994;DHT22;64680;53.800;9.988;2023-07-02T12:30:34;20.60;1.00
75994;DHT22;64680;53.800;9.988;2023-07-02T12:33:00;21.00;1.00
75994;DHT22;64680;53.800;9.988;2023-07-02T12:35:26;21.20;1.00
75994;DHT22;64680;53.800;9.988;2023-07-02T12:37:52;20.90;1.00
75994;DHT22;64680;53.800;9.988;2023-07-02T12:40:19;20.20;1.00
75994;DHT22;64680;53.800;9.988;2023-07-02T12:42:46;19.70;1.00
75994;DHT22;64680;53.800;9.988;2023-07-02T12:45:13;19.10;1.00
75994;DHT22;64680;53.800;9.988;2023-07-02T12:47:39;18.80;1.00
75994;DHT22;64680;53.800;9.988;2023-07-02T12:50:06;18.70;1.00
75994;DHT22;64680;53.800;9.988;2023-07-02T12:52:32;18.90;1.00
75994;DHT22;64680;53.800;9.988;2023-07-02T12:54:58;19.40;1.00
75994;DHT22;64680;53.800;9.988;2023-07-02T12:57:24;19.60;1.00
75994;DHT22;64680;53.800;9.988;2023-07-02T12:59:55;19.70;1.00
75994;DHT22;64680;53.800;9.988;2023-07-02T13:02:24;20.10;1.00
75994;DHT22;64680;53.800;9.988;2023-07-02T13:04:50;20.30;1.00
75994;DHT22;64680;53.800;9.988;2023-07-02T13:07:16;20.40;1.00
75994;DHT22;64680;53.800;9.988;2023-07-02T13:09:42;20.40;1.00
75994;DHT22;64680;53.800;9.988;2023-07-02T13:12:10;20.40;1.00
75994;DHT22;64680;53.800;9.988;2023-07-02T13:14:36;20.40;1.00
75994;DHT22;64680;53.800;9.988;2023-07-02T13:17:02;20.10;1.00
75994;DHT22;64680;53.800;9.988;2023-07-02T13:19:30;20.10;1.00
75994;DHT22;64680;53.800;9.988;2023-07-02T13:21:56;20.20;1.00
75994;DHT22;64680;53.800;9.988;2023-07-02T13:24:21;20.10;1.00
75994;DHT22;64680;53.800;9.988;2023-07-02T13:26:47;20.10;1.00
75994;DHT22;64680;53.800;9.988;2023-07-02T13:29:13;20.10;1.00
75994;DHT22;64680;53.800;9.988;2023-07-02T13:31:39;20.10;1.00
75994;DHT22;64680;53.800;9.988;2023-07-02T13:34:04;20.10;1.00
75994;DHT22;64680;53.800;9.988;2023-07-02T13:36:30;20.10;1.00
75994;DHT22;64680;53.800;9.988;2023-07-02T13:38:56;19.80;1.00
75994;DHT22;64680;53.800;9.988;2023-07-02T13:41:21;19.50;1.00
75994;DHT22;64680;53.800;9.988;2023-07-02T13:43:47;19.30;1.00
75994;DHT22;64680;53.800;9.988;2023-07-02T13:46:13;19.10;1.00
75994;DHT22;64680;53.800;9.988;2023-07-02T13:48:38;19.00;1.00
75994;DHT22;64680;53.800;9.988;2023-07-02T13:51:04;19.00;1.00
75994;DHT22;64680;53.800;9.988;2023-07-02T13:53:30;18.90;1.00
75994;DHT22;64680;53.800;9.988;2023-07-02T13:55:57;18.90;1.00
75994;DHT22;64680;53.800;9.988;2023-07-02T13:58:23;19.30;1.00
75994;DHT22;64680;53.800;9.988;2023-07-02T14:00:48;19.60;1.00
75994;DHT22;64680;53.800;9.988;2023-07-02T14:03:14;19.50;1.00
75994;DHT22;64680;53.800;9.988;2023-07-02T14:05:40;19.30;1.00
75994;DHT22;64680;53.800;9.988;2023-07-02T14:08:05;19.20;1.00
75994;DHT22;64680;53.800;9.988;2023-07-02T14:10:31;18.90;1.00
75994;DHT22;64680;53.800;9.988;2023-07-02T14:12:57;19.30;1.00
75994;DHT22;64680;53.800;9.988;2023-07-02T14:15:24;19.50;1.00
75994;DHT22;64680;53.800;9.988;2023-07-02T14:17:50;19.30;1.00
75994;DHT22;64680;53.800;9.988;2023-07-02T14:20:15;19.00;1.00
75994;DHT22;64680;53.800;9.988;2023-07-02T14:22:41;19.10;1.00
75994;DHT22;64680;53.800;9.988;2023-07-02T14:25:07;19.50;1.00
75994;DHT22;64680;53.800;9.988;2023-07-02T14:27:32;19.50;1.00
75994;DHT22;64680;53.800;9.988;2023-07-02T14:29:58;19.40;1.00
75994;DHT22;64680;53.800;9.988;2023-07-02T14:32:26;19.10;1.00
75994;DHT22;64680;53.800;9.988;2023-07-02T14:34:51;19.00;1.00
75994;DHT22;64680;53.800;9.988;2023-07-02T14:37:17;19.10;1.00
75994;DHT22;64680;53.800;9.988;2023-07-02T14:39:42;18.90;1.00
75994;DHT22;64680;53.800;9.988;2023-07-02T14:42:08;18.90;1.00
75994;DHT22;64680;53.800;9.988;2023-07-02T14:44:34;18.80;1.00
75994;DHT22;64680;53.800;9.988;2023-07-02T14:46:59;18.80;1.00
75994;DHT22;64680;53.800;9.988;2023-07-02T14:49:25;18.70;1.00
75994;DHT22;64680;53.800;9.988;2023-07-02T14:51:51;18.70;1.00
75994;DHT22;64680;53.800;9.988;2023-07-02T14:54:17;18.70;1.00
75994;DHT22;64680;53.800;9.988;2023-07-02T14:56:43;19.00;1.00
75994;DHT22;64680;53.800;9.988;2023-07-02T14:59:08;19.30;1.00
75994;DHT22;64680;53.800;9.988;2023-07-02T15:01:34;19.50;1.00
75994;DHT22;64680;53.800;9.988;2023-07-02T15:04:00;19.70;1.00
75994;DHT22;64680;53.800;9.988;2023-07-02T15:06:25;19.90;1.00
75994;DHT22;64680;53.800;9.988;2023-07-02T15:08:51;19.80;1.00
75994;DHT22;64680;53.800;9.988;2023-07-02T15:11:18;19.70;1.00
75994;DHT22;64680;53.800;9.988;2023-07-02T15:13:43;19.80;1.00
75994;DHT22;64680;53.800;9.988;2023-07-02T15:16:10;19.70;1.00
75994;DHT22;64680;53.800;9.988;2023-07-02T15:18:36;19.50;1.00
75994;DHT22;64680;53.800;9.988;2023-07-02T15:21:03;19.20;1.00
75994;DHT22;64680;53.800;9.988;2023-07-02T15:23:28;19.20;1.00
75994;DHT22;64680;53.800;9.988;2023-07-02T15:25:57;19.20;1.00
75994;DHT22;64680;53.800;9.988;2023-07-02T15:28:24;19.20;1.00
75994;DHT22;64680;53.800;9.988;2023-07-02T15:30:59;19.20;1.00
75994;DHT22;64680;53.800;9.988;2023-07-02T15:33:25;19.40;1.00
75994;DHT22;64680;53.800;9.988;2023-07-02T15:35:51;19.50;1.00
75994;DHT22;64680;53.800;9.988;2023-07-02T15:38:17;19.40;1.00